sensor_id;sensor_type;location;lat;lon;timestamp;pressure;altitude;pressure_sealevel;temperature;humidity
71966;BME280;59836;52.132;5.442;2023-02-16T00:00:36;102442.19;;;5.11;85.16
71966;BME280;59836;52.132;5.442;2023-02-16T00:03:03;102436.81;;;5.11;85.47
71966;BME280;59836;52.132;5.442;2023-02-16T00:05:33;102438.09;;;5.15;85.58
71966;BME280;59836;52.132;5.442;2023-02-16T00:08:14;102431.28;;;5.19;85.34
71966;BME280;59836;52.132;5.442;2023-02-16T00:10:40;102434.63;;;5.21;85.22
71966;BME280;59836;52.132;5.442;2023-02-16T00:13:27;102441.28;;;5.25;85.19
71966;BME280;59836;52.132;5.442;2023-02-16T00:16:17;102439.88;;;5.29;84.81
71966;BME280;59836;52.132;5.442;2023-02-16T00:18:44;102438.03;;;5.30;84.85
71966;BME280;59836;52.132;5.442;2023-02-16T00:21:16;102438.19;;;5.28;84.92
71966;BME280;59836;52.132;5.442;2023-02-16T00:23:52;102432.66;;;5.30;85.02
71966;BME280;59836;52.132;5.442;2023-02-16T00:26:24;102435.13;;;5.31;85.24
71966;BME280;59836;52.132;5.442;2023-02-16T00:28:55;102438.44;;;5.34;84.67
71966;BME280;59836;52.132;5.442;2023-02-16T00:31:27;102445.50;;;5.35;84.63
71966;BME280;59836;52.132;5.442;2023-02-16T00:33:58;102444.47;;;5.36;85.17
71966;BME280;59836;52.132;5.442;2023-02-16T00:36:25;102438.44;;;5.34;84.76
71966;BME280;59836;52.132;5.442;2023-02-16T00:39:09;102431.59;;;5.31;85.01
71966;BME280;59836;52.132;5.442;2023-02-16T00:41:42;102436.53;;;5.27;85.08
71966;BME280;59836;52.132;5.442;2023-02-16T00:49:42;102419.78;;;5.32;84.69
71966;BME280;59836;52.132;5.442;2023-02-16T00:52:41;102420.00;;;5.30;84.57
71966;BME280;59836;52.132;5.442;2023-02-16T00:55:10;102421.03;;;5.29;85.37
71966;BME280;59836;52.132;5.442;2023-02-16T00:57:55;102421.88;;;5.30;84.64
71966;BME280;59836;52.132;5.442;2023-02-16T01:00:29;102420.22;;;5.29;84.98
71966;BME280;59836;52.132;5.442;2023-02-16T01:02:59;102420.59;;;5.26;85.07
71966;BME280;59836;52.132;5.442;2023-02-16T01:05:36;102423.47;;;5.24;85.02
71966;BME280;59836;52.132;5.442;2023-02-16T01:08:12;102419.34;;;5.22;85.29
71966;BME280;59836;52.132;5.442;2023-02-16T01:10:59;102417.84;;;5.19;85.11
71966;BME280;59836;52.132;5.442;2023-02-16T01:13:30;102408.97;;;5.19;85.06
71966;BME280;59836;52.132;5.442;2023-02-16T01:15:57;102410.16;;;5.16;85.11
71966;BME280;59836;52.132;5.442;2023-02-16T01:18:24;102408.88;;;5.12;85.29
71966;BME280;59836;52.132;5.442;2023-02-16T01:21:05;102414.25;;;5.12;85.13
71966;BME280;59836;52.132;5.442;2023-02-16T01:23:37;102421.31;;;5.13;85.44
71966;BME280;59836;52.132;5.442;2023-02-16T01:26:22;102408.88;;;5.12;85.59
71966;BME280;59836;52.132;5.442;2023-02-16T01:29:02;102410.75;;;5.11;85.07
71966;BME280;59836;52.132;5.442;2023-02-16T01:31:31;102408.72;;;5.13;85.68
71966;BME280;59836;52.132;5.442;2023-02-16T01:33:57;102403.34;;;5.13;85.34
71966;BME280;59836;52.132;5.442;2023-02-16T01:36:33;102398.13;;;5.12;85.66
71966;BME280;59836;52.132;5.442;2023-02-16T01:39:20;102405.16;;;5.13;85.69
71966;BME280;59836;52.132;5.442;2023-02-16T01:44:52;102391.09;;;5.11;85.90
71966;BME280;59836;52.132;5.442;2023-02-16T01:47:25;102395.66;;;5.10;85.51
71966;BME280;59836;52.132;5.442;2023-02-16T01:52:48;102389.00;;;5.06;85.87
71966;BME280;59836;52.132;5.442;2023-02-16T01:55:39;102390.66;;;5.07;85.88
71966;BME280;59836;52.132;5.442;2023-02-16T02:03:46;102390.03;;;5.05;86.01
71966;BME280;59836;52.132;5.442;2023-02-16T02:06:33;102383.63;;;5.06;86.13
71966;BME280;59836;52.132;5.442;2023-02-16T02:12:50;102373.28;;;5.10;85.88
71966;BME280;59836;52.132;5.442;2023-02-16T02:15:21;102370.22;;;5.13;86.47
71966;BME280;59836;52.132;5.442;2023-02-16T02:17:49;102376.88;;;5.17;86.15
71966;BME280;59836;52.132;5.442;2023-02-16T02:24:27;102370.06;;;5.21;85.62
71966;BME280;59836;52.132;5.442;2023-02-16T02:27:34;102369.69;;;5.24;86.54
71966;BME280;59836;52.132;5.442;2023-02-16T02:30:17;102362.25;;;5.26;86.12
71966;BME280;59836;52.132;5.442;2023-02-16T02:33:28;102357.72;;;5.27;85.75
71966;BME280;59836;52.132;5.442;2023-02-16T02:36:35;102352.75;;;5.30;86.38
71966;BME280;59836;52.132;5.442;2023-02-16T02:39:45;102361.25;;;5.34;85.56
71966;BME280;59836;52.132;5.442;2023-02-16T02:42:26;102351.97;;;5.37;85.99
71966;BME280;59836;52.132;5.442;2023-02-16T02:45:06;102361.69;;;5.38;85.94
71966;BME280;59836;52.132;5.442;2023-02-16T02:47:52;102348.25;;;5.38;85.72
71966;BME280;59836;52.132;5.442;2023-02-16T02:50:46;102349.91;;;5.39;85.93
71966;BME280;59836;52.132;5.442;2023-02-16T02:53:39;102345.34;;;5.39;85.73
71966;BME280;59836;52.132;5.442;2023-02-16T02:56:08;102343.50;;;5.40;85.89
71966;BME280;59836;52.132;5.442;2023-02-16T02:58:57;102337.91;;;5.41;85.18
71966;BME280;59836;52.132;5.442;2023-02-16T03:01:50;102332.97;;;5.45;85.46
71966;BME280;59836;52.132;5.442;2023-02-16T03:04:29;102328.41;;;5.45;85.85
71966;BME280;59836;52.132;5.442;2023-02-16T03:06:57;102327.59;;;5.45;85.33
71966;BME280;59836;52.132;5.442;2023-02-16T03:09:28;102323.88;;;5.46;85.27
71966;BME280;59836;52.132;5.442;2023-02-16T03:12:12;102328.22;;;5.47;85.70
71966;BME280;59836;52.132;5.442;2023-02-16T03:15:03;102320.16;;;5.47;85.55
71966;BME280;59836;52.132;5.442;2023-02-16T03:17:36;102320.16;;;5.47;84.89
71966;BME280;59836;52.132;5.442;2023-02-16T03:20:26;102315.81;;;5.46;85.01
71966;BME280;59836;52.132;5.442;2023-02-16T03:23:11;102311.06;;;5.48;85.34
71966;BME280;59836;52.132;5.442;2023-02-16T03:25:56;102311.06;;;5.48;85.32
71966;BME280;59836;52.132;5.442;2023-02-16T03:28:42;102309.81;;;5.51;85.08
71966;BME280;59836;52.132;5.442;2023-02-16T03:31:39;102302.59;;;5.51;84.88
71966;BME280;59836;52.132;5.442;2023-02-16T03:34:09;102306.94;;;5.52;84.80
71966;BME280;59836;52.132;5.442;2023-02-16T03:36:39;102318.13;;;5.56;84.77
71966;BME280;59836;52.132;5.442;2023-02-16T03:39:18;102315.25;;;5.57;84.97
71966;BME280;59836;52.132;5.442;2023-02-16T03:41:48;102319.38;;;5.60;84.47
71966;BME280;59836;52.132;5.442;2023-02-16T03:44:16;102320.22;;;5.60;84.62
71966;BME280;59836;52.132;5.442;2023-02-16T03:46:43;102317.53;;;5.60;84.62
71966;BME280;59836;52.132;5.442;2023-02-16T03:49:10;102316.50;;;5.61;84.63
71966;BME280;59836;52.132;5.442;2023-02-16T03:51:36;102319.84;;;5.64;84.54
71966;BME280;59836;52.132;5.442;2023-02-16T03:54:03;102319.84;;;5.64;84.72
71966;BME280;59836;52.132;5.442;2023-02-16T03:56:52;102314.44;;;5.64;84.80
71966;BME280;59836;52.132;5.442;2023-02-16T03:59:18;102328.53;;;5.66;84.93
71966;BME280;59836;52.132;5.442;2023-02-16T04:01:45;102323.16;;;5.66;84.30
71966;BME280;59836;52.132;5.442;2023-02-16T04:04:20;102325.84;;;5.66;84.39
71966;BME280;59836;52.132;5.442;2023-02-16T04:06:46;102322.75;;;5.69;84.68
71966;BME280;59836;52.132;5.442;2023-02-16T04:09:48;102336.41;;;5.67;84.14
71966;BME280;59836;52.132;5.442;2023-02-16T04:12:14;102333.53;;;5.69;84.33
71966;BME280;59836;52.132;5.442;2023-02-16T04:15:16;102332.50;;;5.70;83.94
71966;BME280;59836;52.132;5.442;2023-02-16T04:20:48;102324.41;;;5.70;83.92
71966;BME280;59836;52.132;5.442;2023-02-16T04:23:25;102322.34;;;5.72;84.32
71966;BME280;59836;52.132;5.442;2023-02-16T04:25:52;102332.72;;;5.75;84.06
71966;BME280;59836;52.132;5.442;2023-02-16T04:28:19;102326.50;;;5.74;83.68
71966;BME280;59836;52.132;5.442;2023-02-16T04:30:50;102327.97;;;5.77;83.69
71966;BME280;59836;52.132;5.442;2023-02-16T04:33:23;102323.22;;;5.79;84.10
71966;BME280;59836;52.132;5.442;2023-02-16T04:35:51;102317.84;;;5.79;83.96
71966;BME280;59836;52.132;5.442;2023-02-16T04:38:17;102315.31;;;5.78;84.06
71966;BME280;59836;52.132;5.442;2023-02-16T04:41:02;102315.16;;;5.79;84.05
71966;BME280;59836;52.132;5.442;2023-02-16T04:43:51;102321.56;;;5.78;84.30
71966;BME280;59836;52.132;5.442;2023-02-16T04:46:21;102330.66;;;5.77;84.00
71966;BME280;59836;52.132;5.442;2023-02-16T04:49:01;102330.44;;;5.79;84.66
71966;BME280;59836;52.132;5.442;2023-02-16T04:51:28;102334.81;;;5.80;84.42
71966;BME280;59836;52.132;5.442;2023-02-16T04:54:03;102329.22;;;5.81;84.49
71966;BME280;59836;52.132;5.442;2023-02-16T04:56:42;102317.44;;;5.82;84.57
71966;BME280;59836;52.132;5.442;2023-02-16T04:59:09;102321.75;;;5.83;84.12
71966;BME280;59836;52.132;5.442;2023-02-16T05:02:04;102314.75;;;5.82;84.07
71966;BME280;59836;52.132;5.442;2023-02-16T05:04:40;102315.78;;;5.81;84.33
71966;BME280;59836;52.132;5.442;2023-02-16T05:07:07;102314.75;;;5.82;84.51
71966;BME280;59836;52.132;5.442;2023-02-16T05:09:34;102306.66;;;5.82;84.59
71966;BME280;59836;52.132;5.442;2023-02-16T05:12:00;102314.75;;;5.82;84.74
71966;BME280;59836;52.132;5.442;2023-02-16T05:15:04;102307.25;;;5.84;84.74
71966;BME280;59836;52.132;5.442;2023-02-16T05:17:31;102312.66;;;5.84;84.69
71966;BME280;59836;52.132;5.442;2023-02-16T05:19:59;102304.56;;;5.84;84.22
71966;BME280;59836;52.132;5.442;2023-02-16T05:22:29;102290.50;;;5.82;84.29
71966;BME280;59836;52.132;5.442;2023-02-16T05:25:17;102291.53;;;5.81;84.22
71966;BME280;59836;52.132;5.442;2023-02-16T05:27:43;102287.19;;;5.80;84.63
71966;BME280;59836;52.132;5.442;2023-02-16T05:30:11;102301.28;;;5.82;84.41
71966;BME280;59836;52.132;5.442;2023-02-16T05:32:45;102292.34;;;5.82;84.51
71966;BME280;59836;52.132;5.442;2023-02-16T05:35:24;102285.13;;;5.82;84.43
71966;BME280;59836;52.132;5.442;2023-02-16T05:37:55;102285.13;;;5.82;84.71
71966;BME280;59836;52.132;5.442;2023-02-16T05:40:24;102281.59;;;5.82;84.66
71966;BME280;59836;52.132;5.442;2023-02-16T05:42:59;102290.50;;;5.82;84.59
71966;BME280;59836;52.132;5.442;2023-02-16T05:45:26;102293.38;;;5.81;84.94
71966;BME280;59836;52.132;5.442;2023-02-16T05:48:15;102305.19;;;5.80;84.49
71966;BME280;59836;52.132;5.442;2023-02-16T05:50:57;102303.34;;;5.80;84.54
71966;BME280;59836;52.132;5.442;2023-02-16T05:53:23;102303.34;;;5.80;84.96
71966;BME280;59836;52.132;5.442;2023-02-16T05:56:27;102308.72;;;5.80;85.00
71966;BME280;59836;52.132;5.442;2023-02-16T05:58:54;102297.97;;;5.80;85.15
71966;BME280;59836;52.132;5.442;2023-02-16T06:01:21;102283.88;;;5.78;84.69
71966;BME280;59836;52.132;5.442;2023-02-16T06:04:03;102297.97;;;5.80;84.59
71966;BME280;59836;52.132;5.442;2023-02-16T06:06:30;102304.38;;;5.79;84.62
71966;BME280;59836;52.132;5.442;2023-02-16T06:08:57;102297.34;;;5.78;85.21
71966;BME280;59836;52.132;5.442;2023-02-16T06:11:24;102293.78;;;5.78;85.17
71966;BME280;59836;52.132;5.442;2023-02-16T06:14:11;102298.38;;;5.77;85.19
71966;BME280;59836;52.132;5.442;2023-02-16T06:16:40;102292.97;;;5.77;85.22
71966;BME280;59836;52.132;5.442;2023-02-16T06:19:07;102301.25;;;5.75;85.05
71966;BME280;59836;52.132;5.442;2023-02-16T06:21:34;102311.19;;;5.75;85.23
71966;BME280;59836;52.132;5.442;2023-02-16T06:24:09;102312.84;;;5.76;85.32
71966;BME280;59836;52.132;5.442;2023-02-16T06:26:36;102304.16;;;5.74;84.57
71966;BME280;59836;52.132;5.442;2023-02-16T06:29:04;102312.84;;;5.76;85.05
71966;BME280;59836;52.132;5.442;2023-02-16T06:31:38;102312.00;;;5.75;85.24
71966;BME280;59836;52.132;5.442;2023-02-16T06:34:05;102309.31;;;5.75;85.29
71966;BME280;59836;52.132;5.442;2023-02-16T06:37:03;102305.81;;;5.75;84.94
71966;BME280;59836;52.132;5.442;2023-02-16T06:39:29;102321.56;;;5.78;85.38
71966;BME280;59836;52.132;5.442;2023-02-16T06:41:56;102314.50;;;5.77;85.27
71966;BME280;59836;52.132;5.442;2023-02-16T06:44:22;102317.22;;;5.77;85.32
71966;BME280;59836;52.132;5.442;2023-02-16T06:46:49;102317.00;;;5.79;85.01
71966;BME280;59836;52.132;5.442;2023-02-16T06:49:18;102309.94;;;5.78;85.12
71966;BME280;59836;52.132;5.442;2023-02-16T06:51:45;102314.50;;;5.77;85.23
71966;BME280;59836;52.132;5.442;2023-02-16T06:54:12;102315.31;;;5.78;85.64
71966;BME280;59836;52.132;5.442;2023-02-16T06:56:39;102309.75;;;5.79;85.24
71966;BME280;59836;52.132;5.442;2023-02-16T06:59:06;102301.69;;;5.79;85.31
71966;BME280;59836;52.132;5.442;2023-02-16T07:01:32;102308.72;;;5.80;85.13
71966;BME280;59836;52.132;5.442;2023-02-16T07:03:59;102307.25;;;5.78;85.51
71966;BME280;59836;52.132;5.442;2023-02-16T07:06:27;102301.06;;;5.77;85.08
71966;BME280;59836;52.132;5.442;2023-02-16T07:08:54;102317.84;;;5.79;85.13
71966;BME280;59836;52.132;5.442;2023-02-16T07:11:20;102316.19;;;5.78;85.42
71966;BME280;59836;52.132;5.442;2023-02-16T07:13:51;102317.84;;;5.79;85.25
71966;BME280;59836;52.132;5.442;2023-02-16T07:16:24;102319.50;;;5.80;85.71
71966;BME280;59836;52.132;5.442;2023-02-16T07:18:50;102331.50;;;5.84;85.53
71966;BME280;59836;52.132;5.442;2023-02-16T07:21:17;102324.06;;;5.86;85.33
71966;BME280;59836;52.132;5.442;2023-02-16T07:23:59;102322.00;;;5.88;85.74
71966;BME280;59836;52.132;5.442;2023-02-16T07:26:26;102325.72;;;5.87;85.84
71966;BME280;59836;52.132;5.442;2023-02-16T07:28:53;102323.66;;;5.89;85.87
71966;BME280;59836;52.132;5.442;2023-02-16T07:31:29;102337.75;;;5.91;85.69
71966;BME280;59836;52.132;5.442;2023-02-16T07:33:56;102326.78;;;5.93;85.79
71966;BME280;59836;52.132;5.442;2023-02-16T07:36:23;102328.22;;;5.96;85.76
71966;BME280;59836;52.132;5.442;2023-02-16T07:38:49;102333.63;;;5.96;85.78
71966;BME280;59836;52.132;5.442;2023-02-16T07:41:15;102335.91;;;5.99;85.50
71966;BME280;59836;52.132;5.442;2023-02-16T07:43:42;102349.00;;;6.02;85.70
71966;BME280;59836;52.132;5.442;2023-02-16T07:46:09;102345.28;;;6.03;85.46
71966;BME280;59836;52.132;5.442;2023-02-16T07:48:36;102342.41;;;6.04;85.45
71966;BME280;59836;52.132;5.442;2023-02-16T07:51:03;102340.97;;;6.09;85.78
71966;BME280;59836;52.132;5.442;2023-02-16T07:53:30;102346.97;;;6.11;85.60
71966;BME280;59836;52.132;5.442;2023-02-16T07:55:56;102334.13;;;6.13;85.53
71966;BME280;59836;52.132;5.442;2023-02-16T07:58:23;102342.00;;;6.14;85.06
71966;BME280;59836;52.132;5.442;2023-02-16T08:01:05;102342.00;;;6.14;85.56
71966;BME280;59836;52.132;5.442;2023-02-16T08:03:32;102348.03;;;6.16;85.05
71966;BME280;59836;52.132;5.442;2023-02-16T08:05:59;102347.84;;;6.18;85.65
71966;BME280;59836;52.132;5.442;2023-02-16T08:08:26;102351.16;;;6.20;85.41
71966;BME280;59836;52.132;5.442;2023-02-16T08:10:53;102352.59;;;6.23;85.04
71966;BME280;59836;52.132;5.442;2023-02-16T08:13:19;102367.72;;;6.24;85.06
71966;BME280;59836;52.132;5.442;2023-02-16T08:15:55;102358.63;;;6.25;85.20
71966;BME280;59836;52.132;5.442;2023-02-16T08:18:21;102374.38;;;6.28;85.36
71966;BME280;59836;52.132;5.442;2023-02-16T08:20:48;102360.50;;;6.31;85.52
71966;BME280;59836;52.132;5.442;2023-02-16T08:23:30;102361.13;;;6.33;85.05
71966;BME280;59836;52.132;5.442;2023-02-16T08:25:56;102361.13;;;6.33;85.48
71966;BME280;59836;52.132;5.442;2023-02-16T08:28:31;102363.19;;;6.38;85.36
71966;BME280;59836;52.132;5.442;2023-02-16T08:31:15;102357.81;;;6.38;85.52
71966;BME280;59836;52.132;5.442;2023-02-16T08:33:48;102360.31;;;6.39;85.32
71966;BME280;59836;52.132;5.442;2023-02-16T08:36:19;102359.91;;;6.42;85.30
71966;BME280;59836;52.132;5.442;2023-02-16T08:38:46;102366.97;;;6.43;85.07
71966;BME280;59836;52.132;5.442;2023-02-16T08:41:18;102364.25;;;6.43;85.14
71966;BME280;59836;52.132;5.442;2023-02-16T08:43:46;102371.31;;;6.44;85.53
71966;BME280;59836;52.132;5.442;2023-02-16T08:46:12;102366.97;;;6.43;85.77
71966;BME280;59836;52.132;5.442;2023-02-16T08:48:39;102379.00;;;6.47;85.82
71966;BME280;59836;52.132;5.442;2023-02-16T08:51:14;102365.28;;;6.49;85.80
71966;BME280;59836;52.132;5.442;2023-02-16T08:53:45;102375.88;;;6.50;85.78
71966;BME280;59836;52.132;5.442;2023-02-16T08:56:13;102377.56;;;6.52;85.98
71966;BME280;59836;52.132;5.442;2023-02-16T08:58:40;102372.78;;;6.54;86.07
71966;BME280;59836;52.132;5.442;2023-02-16T09:01:07;102373.41;;;6.56;85.75
71966;BME280;59836;52.132;5.442;2023-02-16T09:03:35;102384.81;;;6.58;85.45
71966;BME280;59836;52.132;5.442;2023-02-16T09:06:03;102383.78;;;6.59;85.87
71966;BME280;59836;52.132;5.442;2023-02-16T09:08:31;102377.38;;;6.60;85.72
71966;BME280;59836;52.132;5.442;2023-02-16T09:11:05;102381.72;;;6.61;86.15
71966;BME280;59836;52.132;5.442;2023-02-16T09:13:33;102378.00;;;6.62;86.25
71966;BME280;59836;52.132;5.442;2023-02-16T09:16:08;102383.38;;;6.62;86.53
71966;BME280;59836;52.132;5.442;2023-02-16T09:18:36;102387.13;;;6.61;87.13
71966;BME280;59836;52.132;5.442;2023-02-16T09:21:04;102385.44;;;6.60;87.64
71966;BME280;59836;52.132;5.442;2023-02-16T09:23:33;102380.47;;;6.57;87.74
71966;BME280;59836;52.132;5.442;2023-02-16T09:26:00;102379.84;;;6.55;88.39
71966;BME280;59836;52.132;5.442;2023-02-16T09:28:28;102384.59;;;6.53;89.08
71966;BME280;59836;52.132;5.442;2023-02-16T09:30:55;102388.53;;;6.50;89.12
71966;BME280;59836;52.132;5.442;2023-02-16T09:33:23;102378.59;;;6.50;89.41
71966;BME280;59836;52.132;5.442;2023-02-16T09:35:51;102378.59;;;6.50;89.69
71966;BME280;59836;52.132;5.442;2023-02-16T09:38:18;102369.88;;;6.48;89.97
71966;BME280;59836;52.132;5.442;2023-02-16T09:40:49;102369.03;;;6.48;90.62
71966;BME280;59836;52.132;5.442;2023-02-16T09:43:32;102355.56;;;6.48;90.11
71966;BME280;59836;52.132;5.442;2023-02-16T09:46:09;102363.00;;;6.46;90.75
71966;BME280;59836;52.132;5.442;2023-02-16T09:48:39;102376.94;;;6.49;91.22
71966;BME280;59836;52.132;5.442;2023-02-16T09:51:22;102385.63;;;6.52;91.79
71966;BME280;59836;52.132;5.442;2023-02-16T09:56:53;102371.75;;;6.55;92.02
71966;BME280;59836;52.132;5.442;2023-02-16T09:59:38;102379.84;;;6.55;92.04
71966;BME280;59836;52.132;5.442;2023-02-16T10:02:33;102383.56;;;6.54;92.01
71966;BME280;59836;52.132;5.442;2023-02-16T10:07:49;102375.66;;;6.52;92.36
71966;BME280;59836;52.132;5.442;2023-02-16T10:10:21;102385.00;;;6.49;92.40
71966;BME280;59836;52.132;5.442;2023-02-16T10:13:20;102394.75;;;6.50;92.60
71966;BME280;59836;52.132;5.442;2023-02-16T10:15:49;102391.03;;;6.52;92.72
71966;BME280;59836;52.132;5.442;2023-02-16T10:18:32;102393.09;;;6.49;92.57
71966;BME280;59836;52.132;5.442;2023-02-16T10:21:07;102382.31;;;6.49;92.84
71966;BME280;59836;52.132;5.442;2023-02-16T10:24:02;102384.38;;;6.47;93.03
71966;BME280;59836;52.132;5.442;2023-02-16T10:27:03;102379.41;;;6.51;93.34
71966;BME280;59836;52.132;5.442;2023-02-16T10:29:47;102382.53;;;6.55;92.93
71966;BME280;59836;52.132;5.442;2023-02-16T10:32:27;102374.84;;;6.58;93.61
71966;BME280;59836;52.132;5.442;2023-02-16T10:35:15;102379.66;;;6.63;93.79
71966;BME280;59836;52.132;5.442;2023-02-16T10:40:21;102378.22;;;6.67;94.06
71966;BME280;59836;52.132;5.442;2023-02-16T10:43:15;102380.28;;;6.72;94.09
71966;BME280;59836;52.132;5.442;2023-02-16T10:45:55;102377.38;;;6.73;94.65
71966;BME280;59836;52.132;5.442;2023-02-16T10:48:24;102380.28;;;6.78;94.42
71966;BME280;59836;52.132;5.442;2023-02-16T10:51:02;102380.69;;;6.82;94.13
71966;BME280;59836;52.132;5.442;2023-02-16T10:53:51;102385.50;;;6.87;94.29
71966;BME280;59836;52.132;5.442;2023-02-16T10:59:37;102379.88;;;6.95;94.52
71966;BME280;59836;52.132;5.442;2023-02-16T11:02:25;102371.59;;;6.97;94.54
71966;BME280;59836;52.132;5.442;2023-02-16T11:04:54;102360.56;;;6.98;94.68
71966;BME280;59836;52.132;5.442;2023-02-16T11:07:29;102366.19;;;7.03;94.60
71966;BME280;59836;52.132;5.442;2023-02-16T11:09:58;102365.75;;;7.06;94.93
71966;BME280;59836;52.132;5.442;2023-02-16T11:12:29;102363.28;;;7.12;94.82
71966;BME280;59836;52.132;5.442;2023-02-16T11:14:59;102364.50;;;7.16;94.80
71966;BME280;59836;52.132;5.442;2023-02-16T11:17:30;102360.34;;;7.20;94.57
71966;BME280;59836;52.132;5.442;2023-02-16T11:19:59;102357.66;;;7.20;94.78
71966;BME280;59836;52.132;5.442;2023-02-16T11:22:33;102343.13;;;7.21;94.16
71966;BME280;59836;52.132;5.442;2023-02-16T11:25:24;102341.91;;;7.23;94.20
71966;BME280;59836;52.132;5.442;2023-02-16T11:27:57;102342.28;;;7.27;94.35
71966;BME280;59836;52.132;5.442;2023-02-16T11:30:34;102338.13;;;7.31;94.79
71966;BME280;59836;52.132;5.442;2023-02-16T11:33:25;102334.19;;;7.34;94.51
71966;BME280;59836;52.132;5.442;2023-02-16T11:35:53;102341.03;;;7.36;94.37
71966;BME280;59836;52.132;5.442;2023-02-16T11:38:26;102332.50;;;7.39;94.74
71966;BME280;59836;52.132;5.442;2023-02-16T11:41:12;102333.75;;;7.44;94.80
71966;BME280;59836;52.132;5.442;2023-02-16T11:43:40;102330.63;;;7.47;95.15
71966;BME280;59836;52.132;5.442;2023-02-16T11:46:16;102333.53;;;7.52;94.89
71966;BME280;59836;52.132;5.442;2023-02-16T11:48:45;102339.13;;;7.57;94.96
71966;BME280;59836;52.132;5.442;2023-02-16T11:51:13;102326.44;;;7.58;94.93
71966;BME280;59836;52.132;5.442;2023-02-16T11:54:14;102326.25;;;7.59;94.91
71966;BME280;59836;52.132;5.442;2023-02-16T11:57:05;102322.88;;;7.64;94.94
71966;BME280;59836;52.132;5.442;2023-02-16T11:59:38;102330.78;;;7.65;95.35
71966;BME280;59836;52.132;5.442;2023-02-16T12:02:16;102332.22;;;7.68;95.02
71966;BME280;59836;52.132;5.442;2023-02-16T12:14:39;102302.44;;;7.88;94.87
71966;BME280;59836;52.132;5.442;2023-02-16T12:17:23;102307.00;;;7.94;94.54
71966;BME280;59836;52.132;5.442;2023-02-16T12:26:43;102281.97;;;8.06;94.08
71966;BME280;59836;52.132;5.442;2023-02-16T12:35:48;102257.16;;;8.48;93.88
71966;BME280;59836;52.132;5.442;2023-02-16T12:41:43;102234.34;;;8.69;92.56
71966;BME280;59836;52.132;5.442;2023-02-16T12:47:12;102236.91;;;8.82;92.55
71966;BME280;59836;52.132;5.442;2023-02-16T12:58:15;102212.84;;;9.11;91.87
71966;BME280;59836;52.132;5.442;2023-02-16T13:00:46;102213.84;;;9.17;91.42
71966;BME280;59836;52.132;5.442;2023-02-16T13:03:39;102212.25;;;9.28;91.26
71966;BME280;59836;52.132;5.442;2023-02-16T13:09:28;102211.34;;;9.34;90.75
71966;BME280;59836;52.132;5.442;2023-02-16T13:12:26;102221.72;;;9.37;90.24
71966;BME280;59836;52.132;5.442;2023-02-16T13:17:43;102203.91;;;9.29;90.37
71966;BME280;59836;52.132;5.442;2023-02-16T13:20:16;102205.56;;;9.30;90.23
71966;BME280;59836;52.132;5.442;2023-02-16T13:25:54;102207.13;;;9.38;90.49
71966;BME280;59836;52.132;5.442;2023-02-16T13:29:02;102196.16;;;9.33;90.30
71966;BME280;59836;52.132;5.442;2023-02-16T13:31:46;102201.81;;;9.32;90.62
71966;BME280;59836;52.132;5.442;2023-02-16T13:34:34;102186.38;;;9.32;90.29
71966;BME280;59836;52.132;5.442;2023-02-16T13:37:24;102179.78;;;9.28;89.94
71966;BME280;59836;52.132;5.442;2023-02-16T13:46:31;102165.84;;;9.43;89.76
71966;BME280;59836;52.132;5.442;2023-02-16T13:48:59;102152.66;;;9.47;89.54
71966;BME280;59836;52.132;5.442;2023-02-16T13:51:28;102149.50;;;9.50;89.62
71966;BME280;59836;52.132;5.442;2023-02-16T13:54:05;102131.72;;;9.54;89.75
71966;BME280;59836;52.132;5.442;2023-02-16T13:56:42;102137.50;;;9.57;88.95
71966;BME280;59836;52.132;5.442;2023-02-16T14:01:46;102137.75;;;9.56;88.60
71966;BME280;59836;52.132;5.442;2023-02-16T14:12:45;102136.91;;;9.55;88.60
71966;BME280;59836;52.132;5.442;2023-02-16T14:15:17;102136.09;;;9.55;88.30
71966;BME280;59836;52.132;5.442;2023-02-16T14:17:45;102136.91;;;9.55;88.45
71966;BME280;59836;52.132;5.442;2023-02-16T14:27:57;102126.44;;;9.59;88.86
71966;BME280;59836;52.132;5.442;2023-02-16T14:30:32;102118.91;;;9.61;88.83
71966;BME280;59836;52.132;5.442;2023-02-16T14:35:44;102119.84;;;9.67;88.20
71966;BME280;59836;52.132;5.442;2023-02-16T14:38:17;102109.88;;;9.67;88.62
71966;BME280;59836;52.132;5.442;2023-02-16T14:41:02;102109.41;;;9.70;88.24
71966;BME280;59836;52.132;5.442;2023-02-16T14:43:40;102109.16;;;9.72;88.18
71966;BME280;59836;52.132;5.442;2023-02-16T14:46:42;102103.53;;;9.73;88.14
71966;BME280;59836;52.132;5.442;2023-02-16T14:52:29;102102.47;;;9.74;88.18
71966;BME280;59836;52.132;5.442;2023-02-16T14:57:55;102103.72;;;9.72;87.99
71966;BME280;59836;52.132;5.442;2023-02-16T15:00:26;102113.75;;;9.71;88.30
71966;BME280;59836;52.132;5.442;2023-02-16T15:03:03;102111.06;;;9.71;88.57
71966;BME280;59836;52.132;5.442;2023-02-16T15:05:39;102105.03;;;9.69;88.23
71966;BME280;59836;52.132;5.442;2023-02-16T15:08:21;102113.16;;;9.69;87.92
71966;BME280;59836;52.132;5.442;2023-02-16T15:10:50;102119.66;;;9.68;87.43
71966;BME280;59836;52.132;5.442;2023-02-16T15:13:29;102109.88;;;9.67;87.59
71966;BME280;59836;52.132;5.442;2023-02-16T15:15:59;102119.66;;;9.68;87.74
71966;BME280;59836;52.132;5.442;2023-02-16T15:18:31;102114.44;;;9.67;87.71
71966;BME280;59836;52.132;5.442;2023-02-16T15:20:59;102113.84;;;9.65;87.88
71966;BME280;59836;52.132;5.442;2023-02-16T15:23:28;102115.16;;;9.62;87.38
71966;BME280;59836;52.132;5.442;2023-02-16T15:26:01;102121.03;;;9.59;88.50
71966;BME280;59836;52.132;5.442;2023-02-16T15:28:34;102113.59;;;9.54;88.67
71966;BME280;59836;52.132;5.442;2023-02-16T15:31:11;102112.63;;;9.49;88.90
71966;BME280;59836;52.132;5.442;2023-02-16T15:36:47;102114.63;;;9.41;90.25
71966;BME280;59836;52.132;5.442;2023-02-16T15:39:23;102114.47;;;9.36;90.75
71966;BME280;59836;52.132;5.442;2023-02-16T15:42:14;102126.81;;;9.32;91.14
71966;BME280;59836;52.132;5.442;2023-02-16T15:44:45;102112.09;;;9.28;91.54